Time,TemperatureF,DewpointF,PressureIn,WindDirection,WindDirectionDegrees,WindSpeedMPH,WindSpeedGustMPH,Humidity,HourlyPrecipIn,Conditions,Clouds,dailyrainin,SolarRadiationWatts/m^2,SoftwareType,DateUTC
2013-06-10 00:02:00,52.0,31.0,-100.00,ENE,69,8.0,12.0,44,0.00,,,0.00,1.000000,,2013-06-10 07:02:00,
2013-06-10 00:22:00,52.0,31.0,-100.00,ENE,69,8.0,12.0,44,0.00,,,0.00,1.000000,,2013-06-10 07:22:00,
2013-06-10 00:32:00,52.0,31.0,-100.00,ENE,69,8.0,12.0,44,0.00,,,0.00,1.000000,,2013-06-10 07:32:00,
2013-06-10 00:42:00,52.0,31.0,-100.00,ENE,69,8.0,12.0,44,0.00,,,0.00,1.000000,,2013-06-10 07:42:00,
2013-06-10 00:52:00,52.0,31.0,-100.00,ENE,69,8.0,12.0,44,0.00,,,0.00,1.000000,,2013-06-10 07:52:00,
2013-06-10 01:02:00,50.0,33.0,-100.00,East,86,8.0,12.0,52,0.00,,,0.00,1.000000,,2013-06-10 08:02:00,
2013-06-10 01:22:00,50.0,33.0,-100.00,East,86,8.0,12.0,52,0.00,,,0.00,1.000000,,2013-06-10 08:22:00,
2013-06-10 01:32:00,50.0,33.0,-100.00,East,86,8.0,12.0,52,0.00,,,0.00,1.000000,,2013-06-10 08:32:00,
2013-06-10 01:42:00,50.0,33.0,-100.00,East,86,8.0,12.0,52,0.00,,,0.00,1.000000,,2013-06-10 08:42:00,
2013-06-10 01:52:00,50.0,33.0,-100.00,East,86,8.0,12.0,52,0.00,,,0.00,1.000000,,2013-06-10 08:52:00,
2013-06-10 02:02:00,50.0,33.0,-100.00,East,83,7.0,12.0,51,0.00,,,0.00,1.000000,,2013-06-10 09:02:00,
2013-06-10 02:22:00,50.0,33.0,-100.00,East,83,7.0,12.0,51,0.00,,,0.00,1.000000,,2013-06-10 09:22:00,
2013-06-10 02:32:00,50.0,33.0,-100.00,East,83,7.0,12.0,51,0.00,,,0.00,1.000000,,2013-06-10 09:32:00,
2013-06-10 02:43:00,50.0,33.0,-100.00,East,83,7.0,12.0,51,0.00,,,0.00,1.000000,,2013-06-10 09:43:00,
2013-06-10 02:53:00,50.0,33.0,-100.00,East,83,7.0,12.0,51,0.00,,,0.00,1.000000,,2013-06-10 09:53:00,
2013-06-10 03:02:00,50.0,29.0,-100.00,East,91,8.0,11.0,45,0.00,,,0.00,1.000000,,2013-06-10 10:02:00,
2013-06-10 03:23:00,50.0,29.0,-100.00,East,91,8.0,11.0,45,0.00,,,0.00,1.000000,,2013-06-10 10:23:00,
2013-06-10 03:33:00,50.0,29.0,-100.00,East,91,8.0,11.0,45,0.00,,,0.00,1.000000,,2013-06-10 10:33:00,
2013-06-10 03:42:00,50.0,29.0,-100.00,East,91,8.0,11.0,45,0.00,,,0.00,1.000000,,2013-06-10 10:42:00,
2013-06-10 03:52:00,50.0,29.0,-100.00,East,91,8.0,11.0,45,0.00,,,0.00,1.000000,,2013-06-10 10:52:00,
2013-06-10 06:02:00,50.0,31.0,-100.00,NE,56,3.0,9.0,48,-99.99,,,-99.99,18.000000,,2013-06-10 13:02:00,
2013-06-10 06:32:00,50.0,31.0,-100.00,NE,56,3.0,9.0,48,-99.99,,,-99.99,18.000000,,2013-06-10 13:32:00,
2013-06-10 06:42:00,50.0,31.0,-100.00,NE,56,3.0,9.0,48,-99.99,,,-99.99,18.000000,,2013-06-10 13:42:00,
2013-06-10 06:52:00,50.0,31.0,-100.00,NE,56,3.0,9.0,48,-99.99,,,-99.99,18.000000,,2013-06-10 13:52:00,
2013-06-10 07:02:00,53.0,32.0,-100.00,North,11,3.0,3.0,45,-99.99,,,0.00,124.000000,,2013-06-10 14:02:00,
2013-06-10 07:22:00,53.0,32.0,-100.00,North,11,3.0,3.0,45,-99.99,,,0.00,124.000000,,2013-06-10 14:22:00,
2013-06-10 07:32:00,53.0,32.0,-100.00,North,11,3.0,3.0,45,-99.99,,,0.00,124.000000,,2013-06-10 14:32:00,
2013-06-10 07:42:00,53.0,32.0,-100.00,North,11,3.0,3.0,45,-99.99,,,0.00,124.000000,,2013-06-10 14:42:00,
2013-06-10 07:52:00,53.0,32.0,-100.00,North,11,3.0,3.0,45,-99.99,,,0.00,124.000000,,2013-06-10 14:52:00,
2013-06-10 08:02:00,57.0,29.0,-100.00,NNE,19,4.0,7.0,34,0.00,,,0.00,329.000000,,2013-06-10 15:02:00,
2013-06-10 08:22:00,57.0,29.0,-100.00,NNE,19,4.0,7.0,34,0.00,,,0.00,329.000000,,2013-06-10 15:22:00,
2013-06-10 08:33:00,57.0,29.0,-100.00,NNE,19,4.0,7.0,34,0.00,,,0.00,329.000000,,2013-06-10 15:33:00,
2013-06-10 08:43:00,57.0,29.0,-100.00,NNE,19,4.0,7.0,34,0.00,,,0.00,329.000000,,2013-06-10 15:43:00,
2013-06-10 08:53:00,57.0,29.0,-100.00,NNE,19,4.0,7.0,34,0.00,,,0.00,329.000000,,2013-06-10 15:53:00,
2013-06-10 09:02:00,62.0,30.0,-100.00,North,3,3.0,7.0,30,0.00,,,-99.99,515.000000,,2013-06-10 16:02:00,
2013-06-10 09:23:00,62.0,30.0,-100.00,North,3,3.0,7.0,30,0.00,,,-99.99,515.000000,,2013-06-10 16:23:00,
2013-06-10 09:33:00,62.0,30.0,-100.00,North,3,3.0,7.0,30,0.00,,,-99.99,515.000000,,2013-06-10 16:33:00,
2013-06-10 09:43:00,62.0,30.0,-100.00,North,3,3.0,7.0,30,0.00,,,-99.99,515.000000,,2013-06-10 16:43:00,
2013-06-10 09:52:00,62.0,30.0,-100.00,North,3,3.0,7.0,30,0.00,,,-99.99,515.000000,,2013-06-10 16:52:00,
2013-06-10 10:02:00,64.0,32.0,-100.00,NW,311,5.0,9.0,30,0.00,,,0.00,688.000000,,2013-06-10 17:02:00,
2013-06-10 10:27:00,64.0,32.0,-100.00,NW,311,5.0,9.0,30,0.00,,,0.00,688.000000,,2013-06-10 17:27:00,
2013-06-10 10:38:00,64.0,32.0,-100.00,NW,311,5.0,9.0,30,0.00,,,0.00,688.000000,,2013-06-10 17:38:00,
2013-06-10 10:48:00,64.0,32.0,-100.00,NW,311,5.0,9.0,30,0.00,,,0.00,688.000000,,2013-06-10 17:48:00,
2013-06-10 10:58:00,64.0,32.0,-100.00,NW,311,5.0,9.0,30,0.00,,,0.00,688.000000,,2013-06-10 17:58:00,
2013-06-10 11:02:00,67.0,31.0,-100.00,North,353,5.0,13.0,26,0.00,,,0.00,840.000000,,2013-06-10 18:02:00,
2013-06-10 11:25:00,67.0,31.0,-100.00,North,353,5.0,13.0,26,0.00,,,0.00,840.000000,,2013-06-10 18:25:00,
2013-06-10 11:35:00,67.0,31.0,-100.00,North,353,5.0,13.0,26,0.00,,,0.00,840.000000,,2013-06-10 18:35:00,
2013-06-10 11:48:00,67.0,31.0,-100.00,North,353,5.0,13.0,26,0.00,,,0.00,840.000000,,2013-06-10 18:48:00,
2013-06-10 11:55:00,67.0,31.0,-100.00,North,353,5.0,13.0,26,0.00,,,0.00,840.000000,,2013-06-10 18:55:00,
2013-06-10 12:02:00,70.0,28.0,-100.00,NNW,342,7.0,13.0,21,0.00,,,0.00,946.000000,,2013-06-10 19:02:00,
2013-06-10 12:23:00,70.0,28.0,-100.00,NNW,342,7.0,13.0,21,0.00,,,0.00,946.000000,,2013-06-10 19:23:00,
2013-06-10 12:33:00,70.0,28.0,-100.00,NNW,342,7.0,13.0,21,0.00,,,0.00,946.000000,,2013-06-10 19:33:00,
2013-06-10 12:43:00,70.0,28.0,-100.00,NNW,342,7.0,13.0,21,0.00,,,0.00,946.000000,,2013-06-10 19:43:00,
2013-06-10 12:53:00,70.0,28.0,-100.00,NNW,342,7.0,13.0,21,0.00,,,0.00,946.000000,,2013-06-10 19:53:00,
2013-06-10 13:02:00,71.0,28.0,-100.00,NNE,19,8.0,14.0,20,0.00,,,0.00,999.000000,,2013-06-10 20:02:00,
2013-06-10 13:23:00,71.0,28.0,-100.00,NNE,19,8.0,14.0,20,0.00,,,0.00,999.000000,,2013-06-10 20:23:00,
2013-06-10 13:32:00,71.0,28.0,-100.00,NNE,19,8.0,14.0,20,0.00,,,0.00,999.000000,,2013-06-10 20:32:00,
2013-06-10 13:43:00,71.0,28.0,-100.00,NNE,19,8.0,14.0,20,0.00,,,0.00,999.000000,,2013-06-10 20:43:00,
2013-06-10 13:52:00,71.0,28.0,-100.00,NNE,19,8.0,14.0,20,0.00,,,0.00,999.000000,,2013-06-10 20:52:00,
2013-06-10 14:02:00,74.0,29.0,-100.00,NW,325,7.0,16.0,19,0.00,,,0.00,1010.000000,,2013-06-10 21:02:00,
2013-06-10 14:23:00,74.0,29.0,-100.00,NW,325,7.0,16.0,19,0.00,,,0.00,1010.000000,,2013-06-10 21:23:00,
2013-06-10 14:34:00,74.0,29.0,-100.00,NW,325,7.0,16.0,19,0.00,,,0.00,1010.000000,,2013-06-10 21:34:00,
2013-06-10 14:43:00,74.0,29.0,-100.00,NW,325,7.0,16.0,19,0.00,,,0.00,1010.000000,,2013-06-10 21:43:00,
2013-06-10 14:53:00,74.0,29.0,-100.00,NW,325,7.0,16.0,19,0.00,,,0.00,1010.000000,,2013-06-10 21:53:00,
2013-06-10 15:02:00,75.0,26.0,-100.00,North,7,10.0,20.0,16,0.00,,,0.00,967.000000,,2013-06-10 22:02:00,
2013-06-10 15:23:00,75.0,26.0,-100.00,North,7,10.0,20.0,16,0.00,,,0.00,967.000000,,2013-06-10 22:23:00,
2013-06-10 15:33:00,75.0,26.0,-100.00,North,7,10.0,20.0,16,0.00,,,0.00,967.000000,,2013-06-10 22:33:00,
2013-06-10 15:42:00,75.0,26.0,-100.00,North,7,10.0,20.0,16,0.00,,,0.00,967.000000,,2013-06-10 22:42:00,
2013-06-10 15:52:00,75.0,26.0,-100.00,North,7,10.0,20.0,16,0.00,,,0.00,967.000000,,2013-06-10 22:52:00,
2013-06-10 16:02:00,77.0,27.0,-100.00,NNW,348,8.0,19.0,16,0.00,,,0.00,870.000000,,2013-06-10 23:02:00,
2013-06-10 16:22:00,77.0,27.0,-100.00,NNW,348,8.0,19.0,16,0.00,,,0.00,870.000000,,2013-06-10 23:22:00,
2013-06-10 16:32:00,77.0,27.0,-100.00,NNW,348,8.0,19.0,16,0.00,,,0.00,870.000000,,2013-06-10 23:32:00,
2013-06-10 16:42:00,77.0,27.0,-100.00,NNW,348,8.0,19.0,16,0.00,,,0.00,870.000000,,2013-06-10 23:42:00,
2013-06-10 16:52:00,77.0,27.0,-100.00,NNW,348,8.0,19.0,16,0.00,,,0.00,870.000000,,2013-06-10 23:52:00,
2013-06-10 17:02:00,77.0,27.0,-100.00,NNE,13,6.0,19.0,16,0.00,,,0.00,730.000000,,2013-06-11 00:02:00,
2013-06-10 17:22:00,77.0,27.0,-100.00,NNE,13,6.0,19.0,16,0.00,,,0.00,730.000000,,2013-06-11 00:22:00,
2013-06-10 17:32:00,77.0,27.0,-100.00,NNE,13,6.0,19.0,16,0.00,,,0.00,730.000000,,2013-06-11 00:32:00,
2013-06-10 17:43:00,77.0,27.0,-100.00,NNE,13,6.0,19.0,16,0.00,,,0.00,730.000000,,2013-06-11 00:43:00,
2013-06-10 17:52:00,77.0,27.0,-100.00,NNE,13,6.0,19.0,16,0.00,,,0.00,730.000000,,2013-06-11 00:52:00,
2013-06-10 18:02:00,76.0,29.0,-100.00,NNW,345,8.0,18.0,18,0.00,,,0.00,562.000000,,2013-06-11 01:02:00,
2013-06-10 18:22:00,76.0,29.0,-100.00,NNW,345,8.0,18.0,18,0.00,,,0.00,562.000000,,2013-06-11 01:22:00,
2013-06-10 18:33:00,76.0,29.0,-100.00,NNW,345,8.0,18.0,18,0.00,,,0.00,562.000000,,2013-06-11 01:33:00,
2013-06-10 18:42:00,76.0,29.0,-100.00,NNW,345,8.0,18.0,18,0.00,,,0.00,562.000000,,2013-06-11 01:42:00,
2013-06-10 18:52:00,76.0,29.0,-100.00,NNW,345,8.0,18.0,18,0.00,,,0.00,562.000000,,2013-06-11 01:52:00,
2013-06-10 19:02:00,72.0,36.0,-100.00,NNW,346,11.0,20.0,27,0.00,,,0.00,377.000000,,2013-06-11 02:02:00,
2013-06-10 19:22:00,72.0,36.0,-100.00,NNW,346,11.0,20.0,27,0.00,,,0.00,377.000000,,2013-06-11 02:22:00,
2013-06-10 19:32:00,72.0,36.0,-100.00,NNW,346,11.0,20.0,27,0.00,,,0.00,377.000000,,2013-06-11 02:32:00,
2013-06-10 19:43:00,72.0,36.0,-100.00,NNW,346,11.0,20.0,27,0.00,,,0.00,377.000000,,2013-06-11 02:43:00,
2013-06-10 19:52:00,72.0,36.0,-100.00,NNW,346,11.0,20.0,27,0.00,,,0.00,377.000000,,2013-06-11 02:52:00,
2013-06-10 20:02:00,68.0,40.0,-100.00,NNW,340,7.0,17.0,36,0.00,,,0.00,194.000000,,2013-06-11 03:02:00,
2013-06-10 20:22:00,68.0,40.0,-100.00,NNW,340,7.0,17.0,36,0.00,,,0.00,194.000000,,2013-06-11 03:22:00,
2013-06-10 20:33:00,68.0,40.0,-100.00,NNW,340,7.0,17.0,36,0.00,,,0.00,194.000000,,2013-06-11 03:33:00,
2013-06-10 20:43:00,68.0,40.0,-100.00,NNW,340,7.0,17.0,36,0.00,,,0.00,194.000000,,2013-06-11 03:43:00,
2013-06-10 20:53:00,68.0,40.0,-100.00,NNW,340,7.0,17.0,36,0.00,,,0.00,194.000000,,2013-06-11 03:53:00,
2013-06-10 21:02:00,59.0,39.0,-100.00,North,9,6.0,16.0,47,0.00,,,0.00,33.000000,,2013-06-11 04:02:00,
2013-06-10 21:23:00,59.0,39.0,-100.00,North,9,6.0,16.0,47,0.00,,,0.00,33.000000,,2013-06-11 04:23:00,
2013-06-10 21:33:00,59.0,39.0,-100.00,North,9,6.0,16.0,47,0.00,,,0.00,33.000000,,2013-06-11 04:33:00,
2013-06-10 21:43:00,59.0,39.0,-100.00,North,9,6.0,16.0,47,0.00,,,0.00,33.000000,,2013-06-11 04:43:00,
2013-06-10 21:52:00,59.0,39.0,-100.00,North,9,6.0,16.0,47,0.00,,,0.00,33.000000,,2013-06-11 04:52:00,
2013-06-10 22:02:00,54.0,38.0,-100.00,NE,38,6.0,12.0,55,0.00,,,0.00,1.000000,,2013-06-11 05:02:00,
2013-06-10 22:22:00,54.0,38.0,-100.00,NE,38,6.0,12.0,55,0.00,,,0.00,1.000000,,2013-06-11 05:22:00,
2013-06-10 22:32:00,54.0,38.0,-100.00,NE,38,6.0,12.0,55,0.00,,,0.00,1.000000,,2013-06-11 05:32:00,
2013-06-10 22:42:00,54.0,38.0,-100.00,NE,38,6.0,12.0,55,0.00,,,0.00,1.000000,,2013-06-11 05:42:00,
2013-06-10 22:52:00,54.0,38.0,-100.00,NE,38,6.0,12.0,55,0.00,,,0.00,1.000000,,2013-06-11 05:52:00,
2013-06-10 23:02:00,52.0,39.0,-100.00,ENE,68,7.0,10.0,60,0.00,,,0.00,1.000000,,2013-06-11 06:02:00,
2013-06-10 23:22:00,52.0,39.0,-100.00,ENE,68,7.0,10.0,60,0.00,,,0.00,1.000000,,2013-06-11 06:22:00,
2013-06-10 23:32:00,52.0,39.0,-100.00,ENE,68,7.0,10.0,60,0.00,,,0.00,1.000000,,2013-06-11 06:32:00,
2013-06-10 23:42:00,52.0,39.0,-100.00,ENE,68,7.0,10.0,60,0.00,,,0.00,1.000000,,2013-06-11 06:42:00,
2013-06-10 23:52:00,52.0,39.0,-100.00,ENE,68,7.0,10.0,60,0.00,,,0.00,1.000000,,2013-06-11 06:52:00,